DAL211 FACT-KATL
Flight info
| Callsign | DAL211 |
|---|---|
| Flight time | N/A |
| Altitude | 34000 |
| Route | IMSOM1B IMSOM UQ36 APKIN UQ15 OKDOG DCT 30S010E 26S005E 22S000W 16S005W 10S010W 05S015W/N0499F360 00N020W DCT BUVUK UL435 ASEBA/N0492F380 UL435 BUTUX/M085F380 L435 FIVZE/M085F400 L435 JAINS/N0485F400 AR12 DEDDY DCT HOTHH JJEDI4 |
| Aircraft | A359/H-SDE2E3GHIJ3J4J5LM1ORWXY/LB1D1 |
Departure
| Time | 2026-05-06 03:04 |
|---|---|
| Airport | Cape Town International Airport (FACT) |
Arrival
| Time | N/A |
|---|---|
| Airport | Hartsfield Jackson Atlanta International Airport (KATL) |
| Time | Latitude | Longitude | Altitude | Speed | Heading |
|---|---|---|---|---|---|
| 2026-05-06 02:33 | -33.96702 | 18.59745 | 171 ft | 0 kts | 255° |
| 2026-05-06 02:52 | -33.96700 | 18.59751 | 170 ft | 2 kts | 255° |
| 2026-05-06 02:52 | -33.96697 | 18.59766 | 170 ft | 2 kts | 255° |
| 2026-05-06 02:53 | -33.96693 | 18.59782 | 170 ft | 2 kts | 255° |
| 2026-05-06 02:53 | -33.96690 | 18.59798 | 170 ft | 2 kts | 259° |
| 2026-05-06 02:53 | -33.96689 | 18.59814 | 170 ft | 2 kts | 286° |
| 2026-05-06 02:53 | -33.96695 | 18.59828 | 170 ft | 2 kts | 323° |
| 2026-05-06 02:54 | -33.96704 | 18.59835 | 170 ft | 2 kts | 339° |
| 2026-05-06 02:54 | -33.96715 | 18.59839 | 170 ft | 2 kts | 344° |
| 2026-05-06 02:54 | -33.96720 | 18.59840 | 170 ft | 0 kts | 343° |
| 2026-05-06 02:57 | -33.96683 | 18.59828 | 170 ft | 9 kts | 344° |
| 2026-05-06 02:58 | -33.96623 | 18.59810 | 170 ft | 9 kts | 347° |
| 2026-05-06 02:58 | -33.96560 | 18.59793 | 170 ft | 9 kts | 347° |
| 2026-05-06 02:58 | -33.96518 | 18.59781 | 170 ft | 9 kts | 347° |
| 2026-05-06 02:58 | -33.96453 | 18.59766 | 170 ft | 9 kts | 351° |
| 2026-05-06 02:59 | -33.96387 | 18.59752 | 170 ft | 10 kts | 350° |
| 2026-05-06 02:59 | -33.96320 | 18.59738 | 170 ft | 10 kts | 350° |
| 2026-05-06 02:59 | -33.96251 | 18.59726 | 169 ft | 10 kts | 357° |
| 2026-05-06 02:59 | -33.96184 | 18.59770 | 165 ft | 14 kts | 47° |
| 2026-05-06 03:00 | -33.96119 | 18.59851 | 166 ft | 12 kts | 45° |
| 2026-05-06 03:00 | -33.96084 | 18.59891 | 163 ft | 1 kts | 44° |
| 2026-05-06 03:00 | -33.96077 | 18.59900 | 163 ft | 0 kts | 44° |
| 2026-05-06 03:01 | -33.96063 | 18.59916 | 162 ft | 6 kts | 44° |
| 2026-05-06 03:01 | -33.96027 | 18.59964 | 160 ft | 9 kts | 50° |
| 2026-05-06 03:01 | -33.96017 | 18.60005 | 159 ft | 2 kts | 102° |
| 2026-05-06 03:01 | -33.96029 | 18.60021 | 159 ft | 3 kts | 140° |
| 2026-05-06 03:02 | -33.96041 | 18.60026 | 159 ft | 0 kts | 164° |
| 2026-05-06 03:03 | -33.96045 | 18.60027 | 160 ft | 5 kts | 164° |
| 2026-05-06 03:03 | -33.96215 | 18.60082 | 159 ft | 51 kts | 166° |
| 2026-05-06 03:03 | -33.96717 | 18.60239 | 167 ft | 97 kts | 165° |
| 2026-05-06 03:03 | -33.97511 | 18.60490 | 156 ft | 138 kts | 165° |
| 2026-05-06 03:04 | -33.98555 | 18.60817 | 212 ft | 167 kts | 165° |
| 2026-05-06 03:04 | -33.99643 | 18.61175 | 591 ft | 164 kts | 163° |
| 2026-05-06 03:04 | -34.00759 | 18.61572 | 848 ft | 171 kts | 165° |
| 2026-05-06 03:04 | -34.01953 | 18.61939 | 1115 ft | 182 kts | 167° |
| 2026-05-06 03:05 | -34.03246 | 18.62297 | 1307 ft | 200 kts | 169° |
| 2026-05-06 03:05 | -34.04670 | 18.62592 | 1500 ft | 216 kts | 180° |
| 2026-05-06 03:05 | -34.06121 | 18.62091 | 1713 ft | 229 kts | 209° |
| 2026-05-06 03:05 | -34.07499 | 18.61031 | 2090 ft | 239 kts | 213° |
| 2026-05-06 03:06 | -34.08931 | 18.59974 | 2535 ft | 244 kts | 202° |
| 2026-05-06 03:06 | -34.10573 | 18.59490 | 3066 ft | 244 kts | 185° |
| 2026-05-06 03:06 | -34.12208 | 18.58954 | 3512 ft | 248 kts | 211° |
| 2026-05-06 03:06 | -34.13618 | 18.57743 | 4003 ft | 250 kts | 215° |
| 2026-05-06 03:07 | -34.15120 | 18.56656 | 4349 ft | 256 kts | 208° |
| 2026-05-06 03:07 | -34.16594 | 18.55417 | 4837 ft | 261 kts | 217° |
| 2026-05-06 03:07 | -34.17688 | 18.53684 | 5447 ft | 264 kts | 247° |
| 2026-05-06 03:07 | -34.17828 | 18.51449 | 5939 ft | 276 kts | 275° |
| 2026-05-06 03:08 | -34.17430 | 18.49148 | 6360 ft | 283 kts | 279° |
| 2026-05-06 03:08 | -34.16962 | 18.46818 | 6824 ft | 286 kts | 279° |
| 2026-05-06 03:08 | -34.16514 | 18.44464 | 7298 ft | 289 kts | 278° |
| 2026-05-06 03:08 | -34.16062 | 18.42086 | 7775 ft | 292 kts | 279° |
| 2026-05-06 03:09 | -34.15601 | 18.39676 | 8242 ft | 296 kts | 279° |
| 2026-05-06 03:09 | -34.15134 | 18.37235 | 8765 ft | 299 kts | 279° |
| 2026-05-06 03:09 | -34.14670 | 18.34818 | 9283 ft | 301 kts | 279° |
| 2026-05-06 03:09 | -34.14194 | 18.32348 | 9770 ft | 304 kts | 279° |
| 2026-05-06 03:10 | -34.13711 | 18.29848 | 10211 ft | 309 kts | 279° |
| 2026-05-06 03:10 | -34.13213 | 18.27265 | 10455 ft | 322 kts | 279° |
| 2026-05-06 03:10 | -34.12695 | 18.24580 | 10669 ft | 335 kts | 279° |
| 2026-05-06 03:10 | -34.12156 | 18.21790 | 10891 ft | 348 kts | 280° |
| 2026-05-06 03:11 | -34.11593 | 18.18889 | 11125 ft | 361 kts | 280° |
| 2026-05-06 03:11 | -34.10921 | 18.15911 | 11328 ft | 376 kts | 288° |
| 2026-05-06 03:11 | -34.09590 | 18.13137 | 11511 ft | 392 kts | 310° |
| 2026-05-06 03:11 | -34.07469 | 18.11005 | 11712 ft | 404 kts | 327° |
| 2026-05-06 03:12 | -34.05038 | 18.09214 | 11924 ft | 414 kts | 329° |
| 2026-05-06 03:12 | -34.02538 | 18.07436 | 12274 ft | 419 kts | 329° |
| 2026-05-06 03:12 | -34.00025 | 18.05632 | 12699 ft | 423 kts | 329° |
| 2026-05-06 03:12 | -33.97642 | 18.03542 | 13104 ft | 426 kts | 316° |
| 2026-05-06 03:13 | -33.95800 | 18.00763 | 13534 ft | 426 kts | 297° |
| 2026-05-06 03:13 | -33.94739 | 17.97450 | 13935 ft | 424 kts | 279° |
| 2026-05-06 03:13 | -33.94543 | 17.93936 | 14344 ft | 419 kts | 263° |
| 2026-05-06 03:13 | -33.94850 | 17.90465 | 14829 ft | 416 kts | 258° |
| 2026-05-06 03:14 | -33.95341 | 17.87035 | 15320 ft | 415 kts | 256° |
| 2026-05-06 03:14 | -33.95905 | 17.83669 | 15788 ft | 416 kts | 255° |
| 2026-05-06 03:14 | -33.96496 | 17.80259 | 16258 ft | 416 kts | 256° |
| 2026-05-06 03:14 | -33.97078 | 17.76836 | 16728 ft | 417 kts | 256° |
| 2026-05-06 03:15 | -33.97639 | 17.73403 | 17188 ft | 419 kts | 257° |
| 2026-05-06 03:15 | -33.98186 | 17.69942 | 17550 ft | 422 kts | 257° |
| 2026-05-06 03:15 | -33.98723 | 17.66462 | 17981 ft | 423 kts | 257° |
| 2026-05-06 03:15 | -33.99252 | 17.62972 | 18418 ft | 424 kts | 258° |
| 2026-05-06 03:16 | -33.99779 | 17.59469 | 18784 ft | 426 kts | 257° |
| 2026-05-06 03:16 | -34.00308 | 17.55943 | 19114 ft | 429 kts | 258° |
| 2026-05-06 03:16 | -34.00841 | 17.52388 | 19414 ft | 432 kts | 258° |
| 2026-05-06 03:16 | -34.01378 | 17.48809 | 19740 ft | 435 kts | 257° |
| 2026-05-06 03:17 | -34.01916 | 17.45212 | 20082 ft | 437 kts | 258° |
| 2026-05-06 03:17 | -34.02457 | 17.41590 | 20432 ft | 440 kts | 258° |
| 2026-05-06 03:17 | -34.03000 | 17.37954 | 20759 ft | 443 kts | 257° |
| 2026-05-06 03:17 | -34.03546 | 17.34285 | 21112 ft | 445 kts | 257° |
| 2026-05-06 03:18 | -34.04094 | 17.30601 | 21476 ft | 448 kts | 257° |
| 2026-05-06 03:18 | -34.04644 | 17.26896 | 21844 ft | 450 kts | 257° |
| 2026-05-06 03:18 | -34.05197 | 17.23167 | 22185 ft | 453 kts | 257° |
| 2026-05-06 03:18 | -34.05745 | 17.19463 | 22538 ft | 456 kts | 257° |
| 2026-05-06 03:19 | -34.06301 | 17.15690 | 22892 ft | 459 kts | 257° |
| 2026-05-06 03:19 | -34.06860 | 17.11887 | 23255 ft | 461 kts | 257° |
| 2026-05-06 03:19 | -34.07326 | 17.08038 | 23599 ft | 466 kts | 262° |
| 2026-05-06 03:19 | -34.07366 | 17.04109 | 23872 ft | 473 kts | 268° |
| 2026-05-06 03:20 | -34.05682 | 16.96247 | 24327 ft | 499 kts | 289° |
| 2026-05-06 03:20 | -34.04101 | 16.92498 | 24698 ft | 503 kts | 293° |
| 2026-05-06 03:20 | -34.02368 | 16.88818 | 25018 ft | 506 kts | 295° |
| 2026-05-06 03:21 | -34.00560 | 16.85162 | 25304 ft | 509 kts | 295° |
| 2026-05-06 03:21 | -33.98728 | 16.81509 | 25608 ft | 511 kts | 295° |
| 2026-05-06 03:21 | -33.96892 | 16.77838 | 25889 ft | 512 kts | 295° |
| 2026-05-06 03:21 | -33.95061 | 16.74147 | 26176 ft | 514 kts | 295° |
| 2026-05-06 03:22 | -33.93240 | 16.70443 | 26470 ft | 515 kts | 295° |
| 2026-05-06 03:22 | -33.91413 | 16.66708 | 26691 ft | 518 kts | 294° |
| 2026-05-06 03:22 | -33.89588 | 16.62963 | 26925 ft | 520 kts | 294° |
| 2026-05-06 03:22 | -33.87757 | 16.59204 | 27226 ft | 521 kts | 294° |
| 2026-05-06 03:23 | -33.85916 | 16.55429 | 27485 ft | 523 kts | 294° |
| 2026-05-06 03:23 | -33.84074 | 16.51656 | 27767 ft | 524 kts | 293° |
| 2026-05-06 03:23 | -33.82249 | 16.47924 | 28031 ft | 525 kts | 293° |
| 2026-05-06 03:23 | -33.80391 | 16.44128 | 28262 ft | 527 kts | 293° |
| 2026-05-06 03:24 | -33.78527 | 16.40325 | 28496 ft | 529 kts | 294° |
| 2026-05-06 03:24 | -33.76653 | 16.36505 | 28729 ft | 530 kts | 294° |
| 2026-05-06 03:24 | -33.74774 | 16.32683 | 29011 ft | 530 kts | 293° |
| 2026-05-06 03:24 | -33.72909 | 16.28903 | 29594 ft | 523 kts | 293° |
| 2026-05-06 03:25 | -33.71059 | 16.25157 | 29987 ft | 521 kts | 293° |
| 2026-05-06 03:25 | -33.69213 | 16.21413 | 30237 ft | 521 kts | 293° |
| 2026-05-06 03:25 | -33.67367 | 16.17668 | 30462 ft | 521 kts | 293° |
| 2026-05-06 03:25 | -33.65517 | 16.13917 | 30675 ft | 521 kts | 292° |
| 2026-05-06 03:26 | -33.63668 | 16.10175 | 30894 ft | 521 kts | 293° |
| 2026-05-06 03:26 | -33.61817 | 16.06435 | 31120 ft | 521 kts | 293° |
| 2026-05-06 03:26 | -33.59967 | 16.02700 | 31330 ft | 521 kts | 293° |
| 2026-05-06 03:26 | -33.58115 | 15.98965 | 31503 ft | 521 kts | 293° |
| 2026-05-06 03:27 | -33.56268 | 15.95249 | 31884 ft | 516 kts | 293° |
| 2026-05-06 03:27 | -33.54435 | 15.91567 | 32195 ft | 514 kts | 293° |
| 2026-05-06 03:27 | -33.52604 | 15.87887 | 32333 ft | 514 kts | 293° |
| 2026-05-06 03:27 | -33.50769 | 15.84198 | 32486 ft | 515 kts | 293° |
| 2026-05-06 03:28 | -33.48936 | 15.80518 | 32656 ft | 515 kts | 293° |
| 2026-05-06 03:28 | -33.47101 | 15.76840 | 32844 ft | 514 kts | 293° |
| 2026-05-06 03:28 | -33.45266 | 15.73165 | 33014 ft | 514 kts | 293° |
| 2026-05-06 03:28 | -33.43426 | 15.69484 | 33144 ft | 515 kts | 293° |
| 2026-05-06 03:29 | -33.41609 | 15.65853 | 33292 ft | 515 kts | 293° |
| 2026-05-06 03:29 | -33.39746 | 15.62136 | 33503 ft | 512 kts | 294° |
| 2026-05-06 03:29 | -33.37924 | 15.58513 | 33976 ft | 505 kts | 294° |
| 2026-05-06 03:29 | -33.36117 | 15.54920 | 34162 ft | 504 kts | 294° |
| 2026-05-06 03:30 | -33.32487 | 15.47688 | 34181 ft | 509 kts | 294° |
| 2026-05-06 03:30 | -33.28837 | 15.40430 | 34184 ft | 514 kts | 294° |
| 2026-05-06 03:31 | -33.25145 | 15.33120 | 34175 ft | 513 kts | 294° |
| 2026-05-06 03:31 | -33.21456 | 15.25832 | 34181 ft | 511 kts | 295° |
| 2026-05-06 03:32 | -33.17792 | 15.18612 | 34189 ft | 507 kts | 295° |
| 2026-05-06 03:32 | -33.14165 | 15.11469 | 34184 ft | 506 kts | 295° |
| 2026-05-06 03:33 | -33.10512 | 15.04283 | 34192 ft | 506 kts | 295° |
| 2026-05-06 03:33 | -33.06821 | 14.97116 | 34189 ft | 508 kts | 297° |
| 2026-05-06 03:34 | -33.02812 | 14.90157 | 34183 ft | 509 kts | 299° |
| 2026-05-06 03:34 | -32.98729 | 14.83309 | 34192 ft | 504 kts | 299° |
| 2026-05-06 03:35 | -32.94732 | 14.76516 | 34192 ft | 503 kts | 298° |
| 2026-05-06 03:35 | -32.90740 | 14.69663 | 34192 ft | 503 kts | 298° |
| 2026-05-06 03:36 | -32.86756 | 14.62813 | 34200 ft | 503 kts | 298° |
| 2026-05-06 03:36 | -32.82766 | 14.55969 | 34193 ft | 503 kts | 298° |
| 2026-05-06 03:37 | -32.78768 | 14.49127 | 34206 ft | 503 kts | 298° |
| 2026-05-06 03:37 | -32.74771 | 14.42301 | 34207 ft | 503 kts | 298° |
| 2026-05-06 03:38 | -32.70768 | 14.35478 | 34208 ft | 503 kts | 298° |
| 2026-05-06 03:38 | -32.66759 | 14.28657 | 34208 ft | 504 kts | 298° |
| 2026-05-06 03:39 | -32.62746 | 14.21842 | 34205 ft | 503 kts | 298° |
| 2026-05-06 03:39 | -32.58772 | 14.15109 | 34210 ft | 499 kts | 298° |
| 2026-05-06 03:40 | -32.54797 | 14.08385 | 34211 ft | 497 kts | 298° |
| 2026-05-06 03:40 | -32.50827 | 14.01676 | 34214 ft | 497 kts | 298° |
| 2026-05-06 03:41 | -32.46852 | 13.94969 | 34214 ft | 497 kts | 298° |
| 2026-05-06 03:41 | -32.42871 | 13.88267 | 34222 ft | 497 kts | 298° |
| 2026-05-06 03:42 | -32.38891 | 13.81580 | 34216 ft | 496 kts | 299° |
| 2026-05-06 03:42 | -32.34926 | 13.74934 | 34225 ft | 493 kts | 299° |
| 2026-05-06 03:43 | -32.30961 | 13.68294 | 34221 ft | 493 kts | 299° |
| 2026-05-06 03:43 | -32.27003 | 13.61675 | 34224 ft | 493 kts | 299° |
| 2026-05-06 03:44 | -32.23071 | 13.55113 | 34233 ft | 493 kts | 299° |
| 2026-05-06 03:44 | -32.19103 | 13.48504 | 34226 ft | 493 kts | 299° |
| 2026-05-06 03:45 | -32.15141 | 13.41919 | 34232 ft | 490 kts | 299° |
| 2026-05-06 03:45 | -32.11188 | 13.35359 | 34223 ft | 489 kts | 299° |
| 2026-05-06 03:46 | -32.07243 | 13.28819 | 34235 ft | 489 kts | 299° |
| 2026-05-06 03:46 | -32.03291 | 13.22279 | 34232 ft | 490 kts | 299° |
| 2026-05-06 03:47 | -31.99362 | 13.15790 | 34238 ft | 490 kts | 299° |
| 2026-05-06 03:47 | -31.95401 | 13.09262 | 34232 ft | 489 kts | 300° |
| 2026-05-06 03:48 | -31.92090 | 13.03813 | 34236 ft | 488 kts | 299° |
| 2026-05-06 03:48 | -31.88138 | 12.97319 | 34239 ft | 488 kts | 299° |
| 2026-05-06 03:49 | -31.84186 | 12.90832 | 34241 ft | 488 kts | 299° |
| 2026-05-06 03:49 | -31.80229 | 12.84351 | 34242 ft | 488 kts | 299° |
| 2026-05-06 03:50 | -31.76269 | 12.77876 | 34242 ft | 488 kts | 299° |
| 2026-05-06 03:50 | -31.72305 | 12.71405 | 34245 ft | 488 kts | 299° |
| 2026-05-06 03:51 | -31.68362 | 12.64981 | 34259 ft | 487 kts | 299° |
| 2026-05-06 03:51 | -31.64401 | 12.58538 | 34242 ft | 487 kts | 299° |
| 2026-05-06 03:52 | -31.60434 | 12.52093 | 34259 ft | 487 kts | 299° |
| 2026-05-06 03:52 | -31.56466 | 12.45657 | 34244 ft | 487 kts | 299° |
| 2026-05-06 03:53 | -31.52494 | 12.39227 | 34247 ft | 487 kts | 299° |
| 2026-05-06 03:53 | -31.48522 | 12.32811 | 34260 ft | 485 kts | 299° |
| 2026-05-06 03:54 | -31.44561 | 12.26420 | 34257 ft | 485 kts | 298° |
| 2026-05-06 03:54 | -31.40592 | 12.20025 | 34258 ft | 484 kts | 298° |
| 2026-05-06 03:55 | -31.36649 | 12.13683 | 34260 ft | 484 kts | 298° |
| 2026-05-06 03:55 | -31.32681 | 12.07312 | 34260 ft | 484 kts | 298° |
| 2026-05-06 03:56 | -31.28711 | 12.00950 | 34262 ft | 483 kts | 298° |
| 2026-05-06 03:56 | -31.24752 | 11.94617 | 34263 ft | 482 kts | 298° |
| 2026-05-06 03:57 | -31.20794 | 11.88294 | 34265 ft | 481 kts | 297° |
| 2026-05-06 03:57 | -31.16843 | 11.81989 | 34263 ft | 481 kts | 297° |
| 2026-05-06 03:58 | -31.12911 | 11.75727 | 34263 ft | 481 kts | 297° |
| 2026-05-06 03:58 | -31.08949 | 11.69426 | 34265 ft | 481 kts | 298° |
| 2026-05-06 03:59 | -31.04988 | 11.63139 | 34265 ft | 479 kts | 297° |
| 2026-05-06 03:59 | -31.01041 | 11.56885 | 34271 ft | 478 kts | 297° |
| 2026-05-06 04:00 | -30.97095 | 11.50640 | 34266 ft | 478 kts | 296° |
| 2026-05-06 04:00 | -30.93147 | 11.44401 | 34273 ft | 478 kts | 296° |
| 2026-05-06 04:01 | -30.89222 | 11.38209 | 34268 ft | 478 kts | 297° |
| 2026-05-06 04:01 | -30.85272 | 11.31988 | 34268 ft | 478 kts | 297° |
| 2026-05-06 04:02 | -30.81315 | 11.25768 | 34287 ft | 477 kts | 296° |
| 2026-05-06 04:02 | -30.77372 | 11.19579 | 34266 ft | 476 kts | 296° |
| 2026-05-06 04:03 | -30.73432 | 11.13401 | 34265 ft | 476 kts | 296° |
| 2026-05-06 04:03 | -30.69486 | 11.07222 | 34265 ft | 476 kts | 296° |
| 2026-05-06 04:04 | -30.65536 | 11.01049 | 34286 ft | 476 kts | 296° |
| 2026-05-06 04:04 | -30.61581 | 10.94879 | 34268 ft | 476 kts | 296° |
| 2026-05-06 04:05 | -30.57625 | 10.88717 | 34270 ft | 476 kts | 297° |
| 2026-05-06 04:05 | -30.53690 | 10.82595 | 34277 ft | 476 kts | 297° |
| 2026-05-06 04:06 | -30.49727 | 10.76441 | 34275 ft | 476 kts | 296° |
| 2026-05-06 04:06 | -30.45763 | 10.70296 | 34281 ft | 475 kts | 296° |
| 2026-05-06 04:07 | -30.41798 | 10.64157 | 34279 ft | 475 kts | 296° |
| 2026-05-06 04:07 | -30.37832 | 10.58024 | 34277 ft | 476 kts | 296° |
| 2026-05-06 04:08 | -30.33861 | 10.51897 | 34281 ft | 474 kts | 297° |
| 2026-05-06 04:08 | -30.29909 | 10.45809 | 34282 ft | 473 kts | 297° |
| 2026-05-06 04:09 | -30.25973 | 10.39750 | 34271 ft | 473 kts | 297° |
| 2026-05-06 04:09 | -30.22014 | 10.33665 | 34284 ft | 473 kts | 297° |
| 2026-05-06 04:10 | -30.18054 | 10.27590 | 34285 ft | 473 kts | 297° |
| 2026-05-06 04:10 | -30.14091 | 10.21519 | 34285 ft | 473 kts | 297° |
| 2026-05-06 04:11 | -30.10132 | 10.15464 | 34284 ft | 471 kts | 297° |
| 2026-05-06 04:11 | -30.06182 | 10.09434 | 34287 ft | 470 kts | 297° |
| 2026-05-06 04:12 | -30.02232 | 10.03408 | 34290 ft | 470 kts | 297° |
| 2026-05-06 04:12 | -29.98266 | 9.97445 | 34289 ft | 474 kts | 299° |
| 2026-05-06 04:13 | -29.93923 | 9.91666 | 34287 ft | 478 kts | 302° |
| 2026-05-06 04:13 | -29.89481 | 9.85958 | 34284 ft | 478 kts | 302° |
| 2026-05-06 04:14 | -29.85082 | 9.80225 | 34276 ft | 477 kts | 301° |
| 2026-05-06 04:14 | -29.80726 | 9.74484 | 34293 ft | 475 kts | 301° |
| 2026-05-06 04:15 | -29.76374 | 9.68733 | 34278 ft | 475 kts | 301° |
| 2026-05-06 04:15 | -29.72020 | 9.62988 | 34290 ft | 476 kts | 301° |
| 2026-05-06 04:16 | -29.67691 | 9.57288 | 34287 ft | 476 kts | 301° |
| 2026-05-06 04:16 | -29.63329 | 9.51556 | 34285 ft | 476 kts | 301° |
| 2026-05-06 04:17 | -29.58968 | 9.45833 | 34271 ft | 476 kts | 301° |
| 2026-05-06 04:17 | -29.54602 | 9.40112 | 34288 ft | 476 kts | 301° |
| 2026-05-06 04:18 | -29.50234 | 9.34397 | 34290 ft | 476 kts | 301° |
| 2026-05-06 04:18 | -29.45864 | 9.28685 | 34287 ft | 477 kts | 302° |
| 2026-05-06 04:19 | -29.41480 | 9.22964 | 34290 ft | 477 kts | 302° |
| 2026-05-06 04:19 | -29.37087 | 9.17242 | 34284 ft | 477 kts | 302° |
| 2026-05-06 04:20 | -29.32699 | 9.11533 | 34287 ft | 477 kts | 302° |
| 2026-05-06 04:20 | -29.28335 | 9.05862 | 34285 ft | 477 kts | 302° |
| 2026-05-06 04:21 | -29.23952 | 9.00178 | 34287 ft | 476 kts | 302° |
| 2026-05-06 04:21 | -29.19577 | 8.94508 | 34288 ft | 475 kts | 302° |
| 2026-05-06 04:22 | -29.15191 | 8.88832 | 34290 ft | 476 kts | 302° |
| 2026-05-06 04:23 | -29.08611 | 8.80333 | 34295 ft | 476 kts | 302° |
| 2026-05-06 04:23 | -29.04219 | 8.74670 | 34289 ft | 476 kts | 302° |
| 2026-05-06 04:24 | -28.99823 | 8.69010 | 34280 ft | 475 kts | 303° |
| 2026-05-06 04:24 | -28.95454 | 8.63396 | 34283 ft | 472 kts | 303° |
| 2026-05-06 04:25 | -28.91111 | 8.57819 | 34292 ft | 472 kts | 303° |
| 2026-05-06 04:25 | -28.86745 | 8.52219 | 34292 ft | 472 kts | 303° |
| 2026-05-06 04:26 | -28.82378 | 8.46626 | 34294 ft | 472 kts | 303° |
| 2026-05-06 04:26 | -28.78006 | 8.41036 | 34291 ft | 472 kts | 303° |
| 2026-05-06 04:27 | -28.73632 | 8.35450 | 34289 ft | 472 kts | 303° |
| 2026-05-06 04:27 | -28.69255 | 8.29868 | 34281 ft | 471 kts | 304° |
| 2026-05-06 04:28 | -28.64878 | 8.24295 | 34297 ft | 471 kts | 304° |
| 2026-05-06 04:28 | -28.60508 | 8.18736 | 34296 ft | 471 kts | 304° |
| 2026-05-06 04:29 | -28.56162 | 8.13217 | 34292 ft | 471 kts | 304° |
| 2026-05-06 04:29 | -28.51780 | 8.07658 | 34289 ft | 471 kts | 304° |
| 2026-05-06 04:30 | -28.47401 | 8.02111 | 34293 ft | 471 kts | 304° |
| 2026-05-06 04:30 | -28.43016 | 7.96564 | 34263 ft | 471 kts | 304° |
| 2026-05-06 04:31 | -28.38659 | 7.91060 | 34293 ft | 470 kts | 304° |
| 2026-05-06 04:31 | -28.34279 | 7.85535 | 34296 ft | 470 kts | 304° |
| 2026-05-06 04:32 | -28.29896 | 7.80013 | 34293 ft | 470 kts | 304° |
| 2026-05-06 04:32 | -28.25510 | 7.74493 | 34296 ft | 470 kts | 304° |
| 2026-05-06 04:33 | -28.21119 | 7.68975 | 34296 ft | 470 kts | 304° |
| 2026-05-06 04:33 | -28.16757 | 7.63501 | 34295 ft | 471 kts | 305° |
| 2026-05-06 04:34 | -28.12368 | 7.58000 | 34281 ft | 471 kts | 305° |
| 2026-05-06 04:34 | -28.07966 | 7.52490 | 34290 ft | 472 kts | 305° |
| 2026-05-06 04:35 | -28.03554 | 7.46975 | 34292 ft | 472 kts | 305° |
| 2026-05-06 04:35 | -27.99137 | 7.41463 | 34292 ft | 472 kts | 305° |
| 2026-05-06 04:36 | -27.95434 | 7.36846 | 34290 ft | 472 kts | 305° |
| 2026-05-06 04:36 | -27.90296 | 7.30448 | 34304 ft | 473 kts | 305° |
| 2026-05-06 04:37 | -27.86618 | 7.25874 | 34298 ft | 473 kts | 305° |
| 2026-05-06 04:37 | -27.82178 | 7.20359 | 34295 ft | 474 kts | 305° |
| 2026-05-06 04:38 | -27.77742 | 7.14856 | 34298 ft | 474 kts | 305° |
| 2026-05-06 04:38 | -27.73294 | 7.09347 | 34297 ft | 474 kts | 305° |
| 2026-05-06 04:39 | -27.68876 | 7.03882 | 34297 ft | 474 kts | 305° |
| 2026-05-06 04:39 | -27.64401 | 6.98352 | 34294 ft | 474 kts | 306° |
| 2026-05-06 04:40 | -27.59980 | 6.92897 | 34278 ft | 474 kts | 306° |
| 2026-05-06 04:40 | -27.55522 | 6.87401 | 34295 ft | 475 kts | 306° |
| 2026-05-06 04:41 | -27.51049 | 6.81895 | 34293 ft | 476 kts | 306° |
| 2026-05-06 04:41 | -27.46577 | 6.76399 | 34295 ft | 476 kts | 306° |
| 2026-05-06 04:42 | -27.42100 | 6.70904 | 34289 ft | 476 kts | 306° |
| 2026-05-06 04:42 | -27.37621 | 6.65413 | 34298 ft | 476 kts | 306° |
| 2026-05-06 04:43 | -27.33135 | 6.59920 | 34293 ft | 476 kts | 306° |
| 2026-05-06 04:43 | -27.28648 | 6.54432 | 34295 ft | 477 kts | 306° |
| 2026-05-06 04:44 | -27.24174 | 6.48967 | 34292 ft | 478 kts | 306° |
| 2026-05-06 04:44 | -27.19667 | 6.43471 | 34292 ft | 478 kts | 307° |
| 2026-05-06 04:45 | -27.15161 | 6.37982 | 34294 ft | 478 kts | 307° |
| 2026-05-06 04:45 | -27.10642 | 6.32485 | 34297 ft | 478 kts | 307° |
| 2026-05-06 04:46 | -27.06131 | 6.27005 | 34292 ft | 478 kts | 307° |
| 2026-05-06 04:46 | -27.01646 | 6.21561 | 34289 ft | 478 kts | 307° |
| 2026-05-06 04:47 | -26.97124 | 6.16080 | 34293 ft | 479 kts | 307° |
| 2026-05-06 04:47 | -26.92598 | 6.10602 | 34292 ft | 479 kts | 307° |
| 2026-05-06 04:48 | -26.88067 | 6.05125 | 34294 ft | 479 kts | 307° |
| 2026-05-06 04:48 | -26.83539 | 5.99658 | 34289 ft | 479 kts | 307° |
| 2026-05-06 04:49 | -26.79034 | 5.94226 | 34292 ft | 479 kts | 307° |
| 2026-05-06 04:49 | -26.74500 | 5.88766 | 34273 ft | 478 kts | 308° |
| 2026-05-06 04:50 | -26.69959 | 5.83303 | 34299 ft | 480 kts | 308° |
| 2026-05-06 04:50 | -26.65409 | 5.77836 | 34299 ft | 480 kts | 308° |
| 2026-05-06 04:51 | -26.60875 | 5.72398 | 34284 ft | 480 kts | 308° |
| 2026-05-06 04:51 | -26.56317 | 5.66936 | 34289 ft | 480 kts | 308° |
| 2026-05-06 04:52 | -26.51761 | 5.61483 | 34296 ft | 480 kts | 308° |
| 2026-05-06 04:52 | -26.47201 | 5.56033 | 34293 ft | 480 kts | 308° |
| 2026-05-06 04:53 | -26.42639 | 5.50585 | 34291 ft | 481 kts | 308° |
| 2026-05-06 04:53 | -26.38069 | 5.45137 | 34290 ft | 481 kts | 308° |
| 2026-05-06 04:54 | -26.33518 | 5.39718 | 34289 ft | 481 kts | 308° |
| 2026-05-06 04:54 | -26.28939 | 5.34273 | 34290 ft | 481 kts | 308° |
| 2026-05-06 04:55 | -26.24360 | 5.28833 | 34292 ft | 481 kts | 308° |
| 2026-05-06 04:55 | -26.19777 | 5.23395 | 34289 ft | 481 kts | 308° |
| 2026-05-06 04:56 | -26.15195 | 5.17966 | 34280 ft | 481 kts | 309° |
| 2026-05-06 04:56 | -26.10616 | 5.12546 | 34286 ft | 481 kts | 309° |
| 2026-05-06 04:57 | -26.06029 | 5.07124 | 34286 ft | 481 kts | 309° |
| 2026-05-06 04:57 | -26.01439 | 5.01705 | 34285 ft | 481 kts | 309° |
| 2026-05-06 04:58 | -25.96956 | 4.96258 | 34286 ft | 479 kts | 306° |
| 2026-05-06 04:58 | -25.92690 | 4.90561 | 34278 ft | 479 kts | 305° |
| 2026-05-06 04:59 | -25.88443 | 4.84845 | 34296 ft | 480 kts | 306° |
| 2026-05-06 04:59 | -25.84148 | 4.79153 | 34288 ft | 480 kts | 307° |
| 2026-05-06 05:00 | -25.79840 | 4.73502 | 34287 ft | 480 kts | 307° |
| 2026-05-06 05:00 | -25.75524 | 4.67855 | 34289 ft | 480 kts | 307° |
| 2026-05-06 05:01 | -25.71206 | 4.62211 | 34291 ft | 480 kts | 307° |
| 2026-05-06 05:01 | -25.66891 | 4.56573 | 34277 ft | 480 kts | 307° |
| 2026-05-06 05:02 | -25.62594 | 4.50965 | 34284 ft | 480 kts | 307° |
| 2026-05-06 05:02 | -25.58267 | 4.45327 | 34285 ft | 480 kts | 307° |
| 2026-05-06 05:03 | -25.53940 | 4.39693 | 34279 ft | 480 kts | 307° |
| 2026-05-06 05:03 | -25.49614 | 4.34070 | 34284 ft | 479 kts | 308° |
| 2026-05-06 05:04 | -25.45286 | 4.28451 | 34279 ft | 479 kts | 308° |
| 2026-05-06 05:04 | -25.40959 | 4.22839 | 34280 ft | 479 kts | 308° |
| 2026-05-06 05:05 | -25.36627 | 4.17227 | 34278 ft | 479 kts | 308° |
| 2026-05-06 05:05 | -25.32294 | 4.11620 | 34276 ft | 480 kts | 308° |
| 2026-05-06 05:06 | -25.27952 | 4.06010 | 34277 ft | 480 kts | 308° |
| 2026-05-06 05:06 | -25.23612 | 4.00408 | 34277 ft | 480 kts | 308° |
| 2026-05-06 05:07 | -25.19291 | 3.94838 | 34271 ft | 480 kts | 308° |
| 2026-05-06 05:07 | -25.14944 | 3.89240 | 34271 ft | 480 kts | 308° |
| 2026-05-06 05:08 | -25.10593 | 3.83645 | 34271 ft | 480 kts | 308° |
| 2026-05-06 05:08 | -25.06243 | 3.78057 | 34272 ft | 480 kts | 308° |
| 2026-05-06 05:09 | -25.01885 | 3.72465 | 34276 ft | 481 kts | 308° |
| 2026-05-06 05:09 | -24.97525 | 3.66878 | 34268 ft | 481 kts | 308° |
| 2026-05-06 05:10 | -24.93189 | 3.61327 | 34270 ft | 482 kts | 308° |
| 2026-05-06 05:10 | -24.88812 | 3.55731 | 34271 ft | 482 kts | 308° |
| 2026-05-06 05:11 | -24.84434 | 3.50142 | 34270 ft | 482 kts | 308° |
| 2026-05-06 05:11 | -24.80051 | 3.44552 | 34270 ft | 482 kts | 308° |
| 2026-05-06 05:12 | -24.75671 | 3.38972 | 34270 ft | 482 kts | 308° |
| 2026-05-06 05:12 | -24.71288 | 3.33395 | 34268 ft | 482 kts | 308° |
| 2026-05-06 05:13 | -24.66896 | 3.27812 | 34270 ft | 482 kts | 308° |
| 2026-05-06 05:13 | -24.62509 | 3.22244 | 34272 ft | 482 kts | 309° |
| 2026-05-06 05:14 | -24.58154 | 3.16722 | 34269 ft | 480 kts | 308° |
| 2026-05-06 05:14 | -24.53769 | 3.11169 | 34266 ft | 482 kts | 309° |
| 2026-05-06 05:15 | -24.49370 | 3.05603 | 34271 ft | 482 kts | 309° |
| 2026-05-06 05:15 | -24.44981 | 3.00059 | 34267 ft | 481 kts | 309° |
| 2026-05-06 05:16 | -24.40573 | 2.94495 | 34269 ft | 484 kts | 309° |
| 2026-05-06 05:16 | -24.36159 | 2.88929 | 34269 ft | 482 kts | 309° |
| 2026-05-06 05:17 | -24.31754 | 2.83382 | 34263 ft | 481 kts | 309° |
| 2026-05-06 05:17 | -24.27354 | 2.77848 | 34264 ft | 483 kts | 309° |
| 2026-05-06 05:18 | -24.22943 | 2.72307 | 34258 ft | 480 kts | 309° |
| 2026-05-06 05:18 | -24.18552 | 2.66798 | 34253 ft | 480 kts | 309° |
| 2026-05-06 05:19 | -24.14187 | 2.61327 | 34264 ft | 481 kts | 309° |
| 2026-05-06 05:19 | -24.09766 | 2.55790 | 34260 ft | 483 kts | 309° |
| 2026-05-06 05:20 | -24.05354 | 2.50273 | 34261 ft | 482 kts | 309° |
| 2026-05-06 05:20 | -24.00928 | 2.44745 | 34262 ft | 485 kts | 309° |
| 2026-05-06 05:21 | -23.96471 | 2.39184 | 34256 ft | 486 kts | 309° |
| 2026-05-06 05:21 | -23.92031 | 2.33650 | 34255 ft | 481 kts | 309° |
| 2026-05-06 05:22 | -23.87607 | 2.28143 | 34263 ft | 484 kts | 309° |
| 2026-05-06 05:22 | -23.83199 | 2.22661 | 34257 ft | 481 kts | 309° |
| 2026-05-06 05:23 | -23.78792 | 2.17188 | 34257 ft | 479 kts | 309° |
| 2026-05-06 05:23 | -23.72906 | 2.09886 | 34252 ft | 483 kts | 309° |
| 2026-05-06 05:24 | -23.68456 | 2.04374 | 34263 ft | 482 kts | 309° |
| 2026-05-06 05:24 | -23.64016 | 1.98881 | 34245 ft | 485 kts | 309° |
| 2026-05-06 05:25 | -23.59542 | 1.93349 | 34259 ft | 483 kts | 309° |
| 2026-05-06 05:25 | -23.54358 | 1.86949 | 34259 ft | 485 kts | 309° |
| 2026-05-06 05:26 | -23.50651 | 1.82378 | 34264 ft | 483 kts | 309° |
| 2026-05-06 05:26 | -23.46187 | 1.76877 | 34241 ft | 484 kts | 310° |
| 2026-05-06 05:27 | -23.41731 | 1.71392 | 34249 ft | 481 kts | 309° |
| 2026-05-06 05:27 | -23.37298 | 1.65944 | 34251 ft | 481 kts | 310° |
| 2026-05-06 05:28 | -23.32839 | 1.60469 | 34250 ft | 486 kts | 309° |
| 2026-05-06 05:28 | -23.28358 | 1.54973 | 34250 ft | 484 kts | 309° |
| 2026-05-06 05:29 | -23.23876 | 1.49480 | 34248 ft | 487 kts | 310° |
| 2026-05-06 05:29 | -23.19390 | 1.43988 | 34244 ft | 490 kts | 310° |
| 2026-05-06 05:30 | -23.14876 | 1.38472 | 34248 ft | 487 kts | 309° |
| 2026-05-06 05:30 | -23.10382 | 1.32985 | 34245 ft | 486 kts | 309° |
| 2026-05-06 05:31 | -23.05878 | 1.27490 | 34244 ft | 485 kts | 309° |
| 2026-05-06 05:31 | -23.01386 | 1.22016 | 34249 ft | 486 kts | 309° |
| 2026-05-06 05:32 | -22.96890 | 1.16544 | 34242 ft | 484 kts | 310° |
| 2026-05-06 05:32 | -22.92391 | 1.11073 | 34246 ft | 488 kts | 309° |
| 2026-05-06 05:33 | -22.87913 | 1.05634 | 34245 ft | 486 kts | 309° |
| 2026-05-06 05:33 | -22.83401 | 1.00161 | 34244 ft | 488 kts | 310° |
| 2026-05-06 05:34 | -22.78866 | 0.94663 | 34245 ft | 490 kts | 310° |
| 2026-05-06 05:34 | -22.74335 | 0.89180 | 34244 ft | 485 kts | 310° |
| 2026-05-06 05:35 | -22.69833 | 0.83735 | 34243 ft | 486 kts | 310° |
| 2026-05-06 05:35 | -22.65316 | 0.78275 | 34241 ft | 484 kts | 309° |
| 2026-05-06 05:36 | -22.60834 | 0.72867 | 34238 ft | 482 kts | 310° |
| 2026-05-06 05:36 | -22.56368 | 0.67481 | 34231 ft | 486 kts | 310° |
| 2026-05-06 05:37 | -22.51835 | 0.62021 | 34235 ft | 487 kts | 309° |
| 2026-05-06 05:37 | -22.47313 | 0.56584 | 34236 ft | 487 kts | 310° |
| 2026-05-06 05:38 | -22.42765 | 0.51119 | 34229 ft | 490 kts | 310° |
| 2026-05-06 05:38 | -22.38202 | 0.45640 | 34230 ft | 491 kts | 309° |
| 2026-05-06 05:39 | -22.33643 | 0.40173 | 34233 ft | 488 kts | 310° |
| 2026-05-06 05:39 | -22.29084 | 0.34712 | 34227 ft | 490 kts | 310° |
| 2026-05-06 05:40 | -22.24554 | 0.29291 | 34227 ft | 488 kts | 310° |
| 2026-05-06 05:40 | -22.20008 | 0.23858 | 34226 ft | 487 kts | 311° |
| 2026-05-06 05:41 | -22.15442 | 0.18406 | 34229 ft | 491 kts | 310° |
| 2026-05-06 05:41 | -22.10865 | 0.12944 | 34227 ft | 490 kts | 310° |
| 2026-05-06 05:42 | -22.06285 | 0.07487 | 34228 ft | 493 kts | 311° |
| 2026-05-06 05:42 | -22.01675 | 0.02003 | 34225 ft | 493 kts | 310° |
| 2026-05-06 05:43 | -21.96609 | -0.02966 | 34224 ft | 493 kts | 318° |
| 2026-05-06 05:43 | -21.91297 | -0.07665 | 34229 ft | 494 kts | 319° |
| 2026-05-06 05:44 | -21.85948 | -0.12312 | 34228 ft | 494 kts | 320° |
| 2026-05-06 05:44 | -21.80595 | -0.16965 | 34229 ft | 496 kts | 319° |
| 2026-05-06 05:45 | -21.75287 | -0.21589 | 34228 ft | 493 kts | 319° |
| 2026-05-06 05:45 | -21.69967 | -0.26225 | 34228 ft | 491 kts | 318° |
| 2026-05-06 05:46 | -21.64654 | -0.30853 | 34223 ft | 492 kts | 319° |
| 2026-05-06 05:46 | -21.59325 | -0.35488 | 34224 ft | 493 kts | 319° |
| 2026-05-06 05:47 | -21.53996 | -0.40120 | 34221 ft | 492 kts | 318° |
| 2026-05-06 05:47 | -21.48682 | -0.44732 | 34222 ft | 491 kts | 319° |
| 2026-05-06 05:48 | -21.43360 | -0.49348 | 34218 ft | 491 kts | 319° |
| 2026-05-06 05:48 | -21.38046 | -0.53950 | 34219 ft | 490 kts | 319° |
| 2026-05-06 05:49 | -21.32784 | -0.58503 | 34218 ft | 488 kts | 319° |
| 2026-05-06 05:49 | -21.27502 | -0.63071 | 34219 ft | 489 kts | 318° |
| 2026-05-06 05:50 | -21.22203 | -0.67650 | 34215 ft | 491 kts | 319° |
| 2026-05-06 05:50 | -21.16888 | -0.72238 | 34211 ft | 489 kts | 319° |
| 2026-05-06 05:51 | -21.11586 | -0.76809 | 34205 ft | 487 kts | 319° |
| 2026-05-06 05:51 | -21.06300 | -0.81364 | 34208 ft | 488 kts | 319° |
| 2026-05-06 05:52 | -21.00999 | -0.85927 | 34208 ft | 490 kts | 319° |
| 2026-05-06 05:52 | -20.95692 | -0.90489 | 34207 ft | 489 kts | 318° |
| 2026-05-06 05:53 | -20.90403 | -0.95033 | 34205 ft | 487 kts | 319° |
| 2026-05-06 05:53 | -20.85111 | -0.99575 | 34204 ft | 488 kts | 319° |
| 2026-05-06 05:54 | -20.81591 | -1.02594 | 34206 ft | 490 kts | 319° |
| 2026-05-06 05:54 | -20.77535 | -1.06069 | 34203 ft | 488 kts | 319° |
| 2026-05-06 05:55 | -20.72244 | -1.10596 | 34200 ft | 485 kts | 318° |
| 2026-05-06 05:55 | -20.66967 | -1.15113 | 34200 ft | 486 kts | 319° |
| 2026-05-06 05:56 | -20.61671 | -1.19641 | 34201 ft | 490 kts | 319° |
| 2026-05-06 05:56 | -20.56353 | -1.24181 | 34198 ft | 489 kts | 319° |
| 2026-05-06 05:57 | -20.51088 | -1.28672 | 34197 ft | 487 kts | 320° |
| 2026-05-06 05:57 | -20.45783 | -1.33196 | 34186 ft | 488 kts | 319° |
| 2026-05-06 05:58 | -20.40473 | -1.37717 | 34188 ft | 488 kts | 319° |
| 2026-05-06 05:58 | -20.35176 | -1.42225 | 34190 ft | 486 kts | 319° |
| 2026-05-06 05:59 | -20.29903 | -1.46707 | 34193 ft | 485 kts | 319° |
| 2026-05-06 05:59 | -20.24643 | -1.51176 | 34192 ft | 488 kts | 319° |
| 2026-05-06 06:00 | -20.19337 | -1.55678 | 34186 ft | 487 kts | 319° |
| 2026-05-06 06:00 | -20.14023 | -1.60180 | 34196 ft | 487 kts | 319° |
| 2026-05-06 06:01 | -20.08719 | -1.64674 | 34191 ft | 487 kts | 320° |
| 2026-05-06 06:01 | -20.03401 | -1.69175 | 34186 ft | 490 kts | 319° |
| 2026-05-06 06:02 | -19.98117 | -1.73643 | 34186 ft | 488 kts | 319° |
| 2026-05-06 06:02 | -19.92816 | -1.78119 | 34185 ft | 485 kts | 320° |
| 2026-05-06 06:03 | -19.87514 | -1.82597 | 34182 ft | 487 kts | 319° |
| 2026-05-06 06:03 | -19.82189 | -1.87088 | 34183 ft | 489 kts | 319° |
| 2026-05-06 06:04 | -19.76865 | -1.91573 | 34181 ft | 487 kts | 319° |
| 2026-05-06 06:04 | -19.71564 | -1.96036 | 34178 ft | 487 kts | 320° |
| 2026-05-06 06:05 | -19.66281 | -2.00480 | 34178 ft | 489 kts | 320° |
| 2026-05-06 06:05 | -19.60940 | -2.04968 | 34171 ft | 489 kts | 320° |
| 2026-05-06 06:06 | -19.55609 | -2.09444 | 34173 ft | 487 kts | 319° |
| 2026-05-06 06:06 | -19.50293 | -2.13903 | 34175 ft | 488 kts | 320° |
| 2026-05-06 06:07 | -19.44956 | -2.18378 | 34174 ft | 490 kts | 320° |
| 2026-05-06 06:07 | -19.39637 | -2.22832 | 34173 ft | 489 kts | 320° |
| 2026-05-06 06:08 | -19.34309 | -2.27289 | 34166 ft | 487 kts | 320° |
| 2026-05-06 06:08 | -19.28977 | -2.31748 | 34164 ft | 489 kts | 320° |
| 2026-05-06 06:09 | -19.23618 | -2.36224 | 34166 ft | 491 kts | 320° |
| 2026-05-06 06:09 | -19.18264 | -2.40691 | 34166 ft | 489 kts | 319° |
| 2026-05-06 06:10 | -19.12967 | -2.45108 | 34164 ft | 489 kts | 320° |
| 2026-05-06 06:10 | -19.07618 | -2.49565 | 34157 ft | 490 kts | 320° |
| 2026-05-06 06:11 | -19.02260 | -2.54025 | 34155 ft | 488 kts | 320° |
| 2026-05-06 06:11 | -18.96927 | -2.58461 | 34157 ft | 486 kts | 319° |
| 2026-05-06 06:12 | -18.91615 | -2.62875 | 34158 ft | 487 kts | 320° |
| 2026-05-06 06:12 | -18.86279 | -2.67309 | 34161 ft | 490 kts | 320° |
| 2026-05-06 06:13 | -18.80926 | -2.71749 | 34149 ft | 488 kts | 319° |
| 2026-05-06 06:13 | -18.76490 | -2.75425 | 34149 ft | 486 kts | 319° |
| 2026-05-06 06:14 | -18.70287 | -2.80565 | 34151 ft | 488 kts | 320° |
| 2026-05-06 06:14 | -18.65801 | -2.84277 | 34148 ft | 490 kts | 320° |
| 2026-05-06 06:15 | -18.60477 | -2.88677 | 34148 ft | 488 kts | 319° |
| 2026-05-06 06:15 | -18.55149 | -2.93079 | 34144 ft | 486 kts | 320° |
| 2026-05-06 06:16 | -18.49803 | -2.97498 | 34149 ft | 488 kts | 320° |
| 2026-05-06 06:16 | -18.44445 | -3.01919 | 34148 ft | 488 kts | 320° |
| 2026-05-06 06:17 | -18.39130 | -3.06300 | 34142 ft | 486 kts | 320° |
| 2026-05-06 06:17 | -18.33814 | -3.10677 | 34145 ft | 486 kts | 320° |
| 2026-05-06 06:18 | -18.28481 | -3.15066 | 34144 ft | 488 kts | 320° |
| 2026-05-06 06:18 | -18.23136 | -3.19462 | 34143 ft | 486 kts | 320° |
| 2026-05-06 06:19 | -18.17809 | -3.23839 | 34141 ft | 485 kts | 320° |
| 2026-05-06 06:19 | -18.12518 | -3.28184 | 34137 ft | 486 kts | 320° |
| 2026-05-06 06:20 | -18.07182 | -3.32563 | 34139 ft | 488 kts | 320° |
| 2026-05-06 06:20 | -18.01848 | -3.36934 | 34138 ft | 484 kts | 320° |
| 2026-05-06 06:21 | -17.96556 | -3.41268 | 34136 ft | 482 kts | 320° |
| 2026-05-06 06:21 | -17.91254 | -3.45608 | 34135 ft | 483 kts | 320° |
| 2026-05-06 06:22 | -17.85948 | -3.49948 | 34134 ft | 483 kts | 320° |
| 2026-05-06 06:22 | -17.80677 | -3.54255 | 34132 ft | 482 kts | 320° |
| 2026-05-06 06:23 | -17.75387 | -3.58575 | 34135 ft | 483 kts | 320° |
| 2026-05-06 06:23 | -17.70078 | -3.62908 | 34135 ft | 484 kts | 320° |
| 2026-05-06 06:24 | -17.64781 | -3.67226 | 34135 ft | 481 kts | 320° |
| 2026-05-06 06:24 | -17.59505 | -3.71524 | 34134 ft | 480 kts | 320° |
| 2026-05-06 06:25 | -17.54228 | -3.75820 | 34134 ft | 480 kts | 320° |
| 2026-05-06 06:26 | -17.46299 | -3.82268 | 34134 ft | 480 kts | 320° |
| 2026-05-06 06:26 | -17.41016 | -3.86561 | 34131 ft | 480 kts | 320° |
| 2026-05-06 06:27 | -17.35758 | -3.90831 | 34125 ft | 481 kts | 320° |
| 2026-05-06 06:27 | -17.30465 | -3.95126 | 34132 ft | 481 kts | 320° |
| 2026-05-06 06:28 | -17.25167 | -3.99420 | 34126 ft | 481 kts | 320° |
| 2026-05-06 06:28 | -17.19867 | -4.03714 | 34127 ft | 481 kts | 320° |
| 2026-05-06 06:29 | -17.14573 | -4.07999 | 34124 ft | 481 kts | 320° |
| 2026-05-06 06:29 | -17.09278 | -4.12283 | 34124 ft | 481 kts | 320° |
| 2026-05-06 06:30 | -17.03987 | -4.16560 | 34122 ft | 481 kts | 320° |
| 2026-05-06 06:30 | -16.98723 | -4.20811 | 34121 ft | 481 kts | 320° |
| 2026-05-06 06:31 | -16.93443 | -4.25073 | 34122 ft | 479 kts | 320° |
| 2026-05-06 06:31 | -16.88166 | -4.29329 | 34119 ft | 479 kts | 320° |
| 2026-05-06 06:32 | -16.82889 | -4.33583 | 34116 ft | 479 kts | 320° |
| 2026-05-06 06:32 | -16.77608 | -4.37836 | 34118 ft | 479 kts | 320° |
| 2026-05-06 06:33 | -16.72325 | -4.42088 | 34123 ft | 479 kts | 320° |
| 2026-05-06 06:33 | -16.67040 | -4.46338 | 34116 ft | 479 kts | 320° |
| 2026-05-06 06:34 | -16.61798 | -4.50551 | 34118 ft | 478 kts | 320° |
| 2026-05-06 06:34 | -16.56536 | -4.54776 | 34119 ft | 477 kts | 320° |
| 2026-05-06 06:35 | -16.51274 | -4.58999 | 34116 ft | 478 kts | 320° |
| 2026-05-06 06:35 | -16.45997 | -4.63232 | 34113 ft | 479 kts | 320° |
| 2026-05-06 06:36 | -16.40700 | -4.67477 | 34113 ft | 480 kts | 320° |
| 2026-05-06 06:36 | -16.35412 | -4.71711 | 34111 ft | 480 kts | 320° |
| 2026-05-06 06:37 | -16.30117 | -4.75948 | 34114 ft | 480 kts | 320° |
| 2026-05-06 06:37 | -16.24835 | -4.80171 | 34110 ft | 477 kts | 320° |
| 2026-05-06 06:38 | -16.19579 | -4.84371 | 34113 ft | 476 kts | 320° |
| 2026-05-06 06:38 | -16.14328 | -4.88565 | 34108 ft | 476 kts | 320° |
| 2026-05-06 06:39 | -16.09107 | -4.92732 | 34108 ft | 476 kts | 320° |
| 2026-05-06 06:39 | -16.03851 | -4.96924 | 34112 ft | 477 kts | 320° |
| 2026-05-06 06:40 | -15.98579 | -5.01135 | 34107 ft | 478 kts | 319° |
| 2026-05-06 06:40 | -15.93435 | -5.05524 | 34092 ft | 478 kts | 317° |
| 2026-05-06 06:41 | -15.88365 | -5.09972 | 34108 ft | 476 kts | 317° |
| 2026-05-06 06:41 | -15.83293 | -5.14386 | 34108 ft | 476 kts | 317° |
| 2026-05-06 06:42 | -15.78201 | -5.18778 | 34108 ft | 476 kts | 317° |
| 2026-05-06 06:42 | -15.73099 | -5.23163 | 34108 ft | 476 kts | 318° |
| 2026-05-06 06:43 | -15.68032 | -5.27515 | 34105 ft | 476 kts | 318° |
| 2026-05-06 06:43 | -15.62933 | -5.31893 | 34105 ft | 476 kts | 318° |
| 2026-05-06 06:44 | -15.57826 | -5.36276 | 34105 ft | 477 kts | 317° |
| 2026-05-06 06:44 | -15.52708 | -5.40666 | 34105 ft | 477 kts | 317° |
| 2026-05-06 06:45 | -15.47594 | -5.45048 | 34101 ft | 477 kts | 317° |
| 2026-05-06 06:45 | -15.42478 | -5.49430 | 34102 ft | 477 kts | 317° |
| 2026-05-06 06:46 | -15.37362 | -5.53810 | 34103 ft | 477 kts | 317° |
| 2026-05-06 06:46 | -15.32240 | -5.58191 | 34105 ft | 477 kts | 317° |
| 2026-05-06 06:47 | -15.27123 | -5.62565 | 34099 ft | 477 kts | 317° |
| 2026-05-06 06:47 | -15.22000 | -5.66941 | 34099 ft | 477 kts | 317° |
| 2026-05-06 06:48 | -15.16878 | -5.71314 | 34096 ft | 477 kts | 317° |
| 2026-05-06 06:48 | -15.11744 | -5.75694 | 34096 ft | 479 kts | 317° |
| 2026-05-06 06:49 | -15.06594 | -5.80086 | 34099 ft | 480 kts | 317° |
| 2026-05-06 06:49 | -15.01471 | -5.84450 | 34099 ft | 480 kts | 317° |
| 2026-05-06 06:50 | -14.96320 | -5.88836 | 34097 ft | 480 kts | 317° |
| 2026-05-06 06:50 | -14.91170 | -5.93219 | 34097 ft | 480 kts | 317° |
| 2026-05-06 06:51 | -14.86011 | -5.97606 | 34095 ft | 480 kts | 317° |
| 2026-05-06 06:51 | -14.80861 | -6.01982 | 34096 ft | 479 kts | 317° |
| 2026-05-06 06:52 | -14.75709 | -6.06358 | 34088 ft | 479 kts | 317° |
| 2026-05-06 06:52 | -14.70560 | -6.10729 | 34087 ft | 480 kts | 317° |
| 2026-05-06 06:53 | -14.65392 | -6.15114 | 34084 ft | 481 kts | 317° |
| 2026-05-06 06:53 | -14.60243 | -6.19478 | 34085 ft | 481 kts | 317° |
| 2026-05-06 06:54 | -14.55067 | -6.23863 | 34086 ft | 481 kts | 317° |
| 2026-05-06 06:54 | -14.49888 | -6.28247 | 34090 ft | 481 kts | 317° |
| 2026-05-06 06:55 | -14.44704 | -6.32634 | 34087 ft | 481 kts | 317° |
| 2026-05-06 06:55 | -14.39524 | -6.37014 | 34083 ft | 482 kts | 317° |
| 2026-05-06 06:56 | -14.34337 | -6.41397 | 34086 ft | 482 kts | 317° |
| 2026-05-06 06:56 | -14.29156 | -6.45773 | 34088 ft | 481 kts | 317° |
| 2026-05-06 06:57 | -14.23969 | -6.50151 | 34080 ft | 483 kts | 317° |
| 2026-05-06 06:57 | -14.18767 | -6.54539 | 34077 ft | 483 kts | 317° |
| 2026-05-06 06:58 | -14.13565 | -6.58924 | 34080 ft | 483 kts | 317° |
| 2026-05-06 06:58 | -14.08392 | -6.63283 | 34078 ft | 483 kts | 317° |
| 2026-05-06 06:59 | -14.03185 | -6.67666 | 34080 ft | 483 kts | 317° |
| 2026-05-06 06:59 | -13.97976 | -6.72050 | 34080 ft | 483 kts | 317° |
| 2026-05-06 07:00 | -13.92768 | -6.76430 | 34072 ft | 483 kts | 317° |
| 2026-05-06 07:00 | -13.87563 | -6.80804 | 34078 ft | 483 kts | 317° |
| 2026-05-06 07:01 | -13.82381 | -6.85157 | 34069 ft | 483 kts | 317° |
| 2026-05-06 07:01 | -13.77160 | -6.89540 | 34074 ft | 485 kts | 317° |
| 2026-05-06 07:02 | -13.71935 | -6.93924 | 34072 ft | 484 kts | 317° |
| 2026-05-06 07:02 | -13.66702 | -6.98311 | 34072 ft | 484 kts | 317° |
| 2026-05-06 07:03 | -13.62355 | -7.01953 | 34072 ft | 484 kts | 317° |
| 2026-05-06 07:03 | -13.57124 | -7.06334 | 34072 ft | 484 kts | 317° |
| 2026-05-06 07:04 | -13.51925 | -7.10687 | 34064 ft | 484 kts | 317° |
| 2026-05-06 07:04 | -13.46701 | -7.15056 | 34064 ft | 484 kts | 318° |
| 2026-05-06 07:05 | -13.41466 | -7.19434 | 34064 ft | 484 kts | 318° |
| 2026-05-06 07:05 | -13.36233 | -7.23807 | 34061 ft | 485 kts | 318° |
| 2026-05-06 07:06 | -13.30989 | -7.28186 | 34065 ft | 486 kts | 318° |
| 2026-05-06 07:06 | -13.25779 | -7.32535 | 34064 ft | 486 kts | 318° |
| 2026-05-06 07:07 | -13.20524 | -7.36917 | 34061 ft | 486 kts | 318° |
| 2026-05-06 07:07 | -13.15279 | -7.41290 | 34061 ft | 486 kts | 318° |
| 2026-05-06 07:08 | -13.10030 | -7.45663 | 34061 ft | 486 kts | 318° |
| 2026-05-06 07:08 | -13.04783 | -7.50033 | 34059 ft | 486 kts | 318° |
| 2026-05-06 07:09 | -12.99564 | -7.54377 | 34054 ft | 485 kts | 318° |
| 2026-05-06 07:09 | -12.94320 | -7.58739 | 34056 ft | 485 kts | 318° |
| 2026-05-06 07:10 | -12.89075 | -7.63099 | 34056 ft | 486 kts | 318° |
| 2026-05-06 07:10 | -12.83813 | -7.67472 | 34055 ft | 487 kts | 318° |
| 2026-05-06 07:11 | -12.78543 | -7.71848 | 34049 ft | 487 kts | 318° |
| 2026-05-06 07:11 | -12.73306 | -7.76194 | 34054 ft | 487 kts | 318° |
| 2026-05-06 07:12 | -12.68035 | -7.80566 | 34056 ft | 487 kts | 318° |
| 2026-05-06 07:12 | -12.62766 | -7.84934 | 34049 ft | 487 kts | 318° |
| 2026-05-06 07:13 | -12.57494 | -7.89302 | 34051 ft | 487 kts | 318° |
| 2026-05-06 07:13 | -12.52219 | -7.93671 | 34053 ft | 487 kts | 318° |
| 2026-05-06 07:14 | -12.46984 | -7.98004 | 34050 ft | 487 kts | 318° |
| 2026-05-06 07:14 | -12.41717 | -8.02361 | 34050 ft | 487 kts | 318° |
| 2026-05-06 07:15 | -12.36439 | -8.06725 | 34052 ft | 487 kts | 318° |
| 2026-05-06 07:15 | -12.31162 | -8.11086 | 34050 ft | 487 kts | 318° |
| 2026-05-06 07:16 | -12.25928 | -8.15409 | 34046 ft | 486 kts | 319° |
| 2026-05-06 07:16 | -12.20665 | -8.19754 | 34039 ft | 486 kts | 319° |
| 2026-05-06 07:17 | -12.15406 | -8.24092 | 34057 ft | 486 kts | 319° |
| 2026-05-06 07:17 | -12.10147 | -8.28429 | 34042 ft | 486 kts | 319° |
| 2026-05-06 07:18 | -12.04883 | -8.32768 | 34038 ft | 486 kts | 319° |
| 2026-05-06 07:18 | -11.99612 | -8.37109 | 34056 ft | 488 kts | 318° |
| 2026-05-06 07:19 | -11.94317 | -8.41470 | 34038 ft | 489 kts | 318° |
| 2026-05-06 07:19 | -11.89018 | -8.45830 | 34045 ft | 489 kts | 319° |
| 2026-05-06 07:20 | -11.83750 | -8.50163 | 34043 ft | 489 kts | 319° |
| 2026-05-06 07:20 | -11.78446 | -8.54523 | 34043 ft | 489 kts | 319° |
| 2026-05-06 07:21 | -11.73137 | -8.58884 | 34039 ft | 489 kts | 319° |
| 2026-05-06 07:21 | -11.67835 | -8.63239 | 34041 ft | 489 kts | 319° |
| 2026-05-06 07:22 | -11.62524 | -8.67598 | 34041 ft | 489 kts | 319° |
| 2026-05-06 07:22 | -11.57249 | -8.71926 | 34042 ft | 489 kts | 319° |
| 2026-05-06 07:23 | -11.51919 | -8.76297 | 34046 ft | 492 kts | 318° |
| 2026-05-06 07:23 | -11.46578 | -8.80675 | 34047 ft | 493 kts | 319° |
| 2026-05-06 07:24 | -11.41231 | -8.85054 | 34028 ft | 493 kts | 319° |
| 2026-05-06 07:24 | -11.35917 | -8.89405 | 34044 ft | 493 kts | 319° |
| 2026-05-06 07:25 | -11.30572 | -8.93778 | 34041 ft | 493 kts | 319° |
| 2026-05-06 07:25 | -11.25225 | -8.98152 | 34024 ft | 493 kts | 319° |
| 2026-05-06 07:26 | -11.19877 | -9.02525 | 34041 ft | 493 kts | 319° |
| 2026-05-06 07:26 | -11.14533 | -9.06892 | 34037 ft | 492 kts | 319° |
| 2026-05-06 07:27 | -11.09188 | -9.11257 | 34036 ft | 493 kts | 319° |
| 2026-05-06 07:27 | -11.03834 | -9.15629 | 34037 ft | 494 kts | 319° |
| 2026-05-06 07:28 | -10.98466 | -9.20008 | 34035 ft | 494 kts | 319° |
| 2026-05-06 07:28 | -10.90453 | -9.26542 | 34033 ft | 494 kts | 319° |
| 2026-05-06 07:29 | -10.85083 | -9.30919 | 34031 ft | 494 kts | 319° |